Nearby METAR Reports

 

KSJC - San Jose, California, USA
Distance from station: NE 14km
Updated: 2021-11-27 00:53
Partly cloudy
Partly cloudy
 Wind from calm
Wind: Calm
Temperature: 11°C
Dew Point: 7°C
Humidity: 77%
Barometer: 1021.3 hPa
Clouds: Partly cloudy
Visibility: 14 km
Cloud details: Few Clouds 1219 m
Partly cloudy 5486 m
2021/11/27 06:53 KSJC 270653Z 00000KT 9SM FEW040 SCT180 11/07 A3016 RMK AO2 SLP213 T01060067
KNUQ - Moffett Nas/Mtn, California, USA
Distance from station: N 14km
Updated: 2021-11-27 01:35
Clear
Clear
 Wind from calm
Wind: Calm
Temperature: 10°C
Dew Point: 6°C
Humidity: 76%
Barometer: 1021 hPa
Clouds: Clear
Visibility: 16 km
2021/11/27 07:35 KNUQ 270735Z AUTO 00000KT 10SM CLR 10/06 A3015 RMK AO2
 
KPAO - Palo Alto, California, USA
Distance from station: NNW 23km
Updated: 2021-11-26 22:47
NOT Current
Clear
Clear
 Wind from calm
Wind: Calm
Temperature: 11°C
Dew Point: 7°C
Humidity: 77%
Barometer: 1021 hPa
Clouds: Clear
Visibility: 16 km
2021/11/27 04:47 KPAO 270447Z 00000KT 10SM SKC 11/07 A3015 RMK LAST
KRHV - San Jose/Reid, California, USA
Distance from station: ENE 19km
Updated: 2021-11-26 23:50
NOT Current
Clear
Clear
 Wind from varies
Wind: varies 6 km/h
Temperature: 11°C
Dew Point: 7°C
Humidity: 77%
Barometer: 1021 hPa
Clouds: Clear
Visibility: 16 km
2021/11/27 05:50 KRHV 270550Z VRB03KT 10SM SKC 11/07 A3015 RMK LAST
 
KOAK - Oakland, California, USA
Distance from station: NNW 50km
Updated: 2021-11-27 00:53
Partly cloudy
Partly cloudy
 Wind from E
Wind: E 6 km/h
Temperature: 10°C
Dew Point: 6°C
Humidity: 76%
Barometer: 1021.7 hPa
Clouds: Partly cloudy
Visibility: 16 km
Cloud details: Partly cloudy 6096 m
2021/11/27 06:53 KOAK 270653Z 08003KT 10SM SCT200 10/06 A3017 RMK AO2 SLP215 T01000056
KSQL - San Carlos Airpo, California, USA
Distance from station: NW 34km
Updated: 2021-11-27 01:35
Clear
Clear
 Wind from calm
Wind: Calm
Temperature: 11°C
Dew Point: 4°C
Humidity: 62%
Barometer: 1021.3 hPa
Clouds: Clear
Visibility: 16 km
2021/11/27 07:35 KSQL 270735Z AUTO 00000KT 10SM CLR 11/04 A3016 RMK AO2
 
KSFO - San Francisco, California, USA
Distance from station: NW 49km
Updated: 2021-11-27 00:56
Partly cloudy
Partly cloudy
 Wind from S
Wind: S 6 km/h
Temperature: 12°C
Dew Point: 8°C
Humidity: 77%
Barometer: 1021 hPa
Clouds: Partly cloudy
Visibility: 16 km
Cloud details: Few Clouds 183 m
Partly cloudy 5486 m
2021/11/27 06:56 KSFO 270656Z 18003KT 10SM FEW006 SCT180 12/08 A3015 RMK AO2 SLP210 T01170078
KE16 - San Martin, California, USA
Distance from station: ESE 43km
Updated: 2021-11-27 01:35
Clear
Clear
 Wind from NNW
Wind: NNW 7 km/h
Temperature: 7°C
Wind Chill: 6°C
Dew Point: 5°C
Humidity: 87%
Barometer: 1022 hPa
Clouds: Clear
Visibility: 16 km
2021/11/27 07:35 KE16 270735Z AUTO 33004KT 10SM CLR 07/05 A3018 RMK AO2 PWINO PNO
 
KWVI - Watsonville, California, USA
Distance from station: SSE 44km
Updated: 2021-11-27 00:53
Clear
Clear
 Wind from NNW
Wind: NNW 7 km/h
Temperature: 9°C
Wind Chill: 8°C
Dew Point: 4°C
Humidity: 71%
Barometer: 1020.7 hPa
Clouds: Clear
Visibility: 16 km
2021/11/27 06:53 KWVI 270653Z AUTO 33004KT 10SM CLR 09/04 A3014 RMK AO2 SLP205 T00940044
KHAF - Half Moon Bay, California, USA
Distance from station: WNW 50km
Updated: 2021-11-27 01:35
Overcast
Overcast
 Wind from calm
Wind: Calm
Temperature: 8°C
Dew Point: 5°C
Humidity: 82%
Barometer: 1020.7 hPa
Clouds: Overcast
Visibility: 16 km
Cloud details: Overcast 91 m
2021/11/27 07:35 KHAF 270735Z AUTO 00000KT 10SM OVC003 08/05 A3014 RMK AO2
 
KHWD - Hayward, California, USA
Distance from station: N 44km
Updated: 2021-11-27 00:54
Clear
Clear
 Wind from ENE
Wind: ENE 6 km/h
Temperature: 11°C
Dew Point: 4°C
Humidity: 62%
Barometer: 1021.3 hPa
Clouds: Clear
Visibility: 16 km
2021/11/27 06:54 KHWD 270654Z AUTO 06003KT 10SM CLR 11/04 A3016 RMK AO2 SLP222 T01060044
KLVK - Livermore, California, USA
Distance from station: NNE 51km
Updated: 2021-11-27 00:53
Clear
Clear
 Wind from calm
Wind: Calm
Temperature: 9°C
Dew Point: 5°C
Humidity: 76%
Barometer: 1021.3 hPa
Clouds: Clear
Visibility: 16 km
2021/11/27 06:53 KLVK 270653Z AUTO 00000KT 10SM CLR 09/05 A3016 RMK AO2 SLP213 T00890050